createdAt,value
2019-04-03T00:00:27.512Z,82.00
2019-04-03T00:02:22.361Z,82.40
2019-04-03T00:04:16.932Z,82.50
2019-04-03T00:06:11.389Z,82.70
2019-04-03T00:08:07.720Z,82.60
2019-04-03T00:10:02.369Z,82.10
2019-04-03T00:11:57.491Z,82.60
2019-04-03T00:13:52.399Z,82.30
2019-04-03T00:15:46.988Z,82.30
2019-04-03T00:17:41.915Z,82.50
2019-04-03T00:19:36.720Z,82.40
2019-04-03T00:21:31.483Z,82.90
2019-04-03T00:23:25.451Z,82.40
2019-04-03T00:25:22.386Z,82.90
2019-04-03T00:27:16.956Z,83.10
2019-04-03T00:29:11.571Z,83.20
2019-04-03T00:31:06.188Z,83.50
2019-04-03T00:33:00.788Z,83.80
2019-04-03T00:34:55.346Z,84.10
2019-04-03T00:36:51.504Z,84.40
2019-04-03T00:38:45.953Z,84.60
2019-04-03T00:40:40.072Z,85.10
2019-04-03T00:42:34.463Z,85.00
2019-04-03T00:44:28.769Z,85.00
2019-04-03T00:46:24.359Z,85.00
2019-04-03T00:48:20.885Z,85.20
2019-04-03T00:50:15.296Z,84.80
2019-04-03T00:52:10.125Z,84.80
2019-04-03T00:54:04.411Z,84.70
2019-04-03T00:55:59.214Z,84.70
2019-04-03T00:57:54.776Z,85.00
2019-04-03T00:59:50.042Z,85.00
2019-04-03T01:01:44.058Z,85.10
2019-04-03T01:03:38.694Z,85.00
2019-04-03T01:05:33.257Z,84.80
2019-04-03T01:07:29.219Z,84.80
2019-04-03T01:09:23.905Z,85.40
2019-04-03T01:11:18.767Z,85.90
2019-04-03T01:13:13.631Z,85.00
2019-04-03T01:15:09.273Z,85.30
2019-04-03T01:17:04.481Z,84.90
2019-04-03T01:18:59.318Z,84.90
2019-04-03T01:20:53.599Z,85.60
2019-04-03T01:22:48.259Z,86.00
2019-04-03T01:24:42.456Z,86.80
2019-04-03T01:26:36.597Z,86.80
2019-04-03T01:28:31.266Z,87.20
2019-04-03T01:30:26.084Z,87.30
2019-04-03T01:32:20.359Z,86.90
2019-04-03T01:34:17.176Z,86.80
2019-04-03T01:36:10.788Z,86.90
2019-04-03T01:38:05.498Z,86.40
2019-04-03T01:40:00.463Z,86.30
2019-04-03T01:41:55.613Z,87.00
2019-04-03T01:43:49.531Z,88.60
2019-04-03T01:45:43.928Z,88.60
2019-04-03T01:47:38.030Z,87.90
2019-04-03T01:49:32.511Z,87.50
2019-04-03T01:51:27.735Z,89.00
2019-04-03T01:53:25.212Z,88.10
2019-04-03T01:55:20.814Z,88.20
2019-04-03T01:57:15.084Z,88.00
2019-04-03T01:59:10.077Z,87.90
2019-04-03T02:01:04.532Z,87.90
2019-04-03T02:03:03.260Z,87.90
2019-04-03T02:05:00.873Z,87.70
2019-04-03T02:06:55.943Z,87.20
2019-04-03T02:08:51.551Z,87.00
2019-04-03T02:10:48.229Z,86.90
2019-04-03T02:12:42.461Z,86.90
2019-04-03T02:14:37.159Z,86.50
2019-04-03T02:16:32.071Z,86.50
2019-04-03T02:18:26.659Z,87.30
2019-04-03T02:20:21.234Z,86.60
2019-04-03T02:22:15.798Z,86.50
2019-04-03T02:24:10.408Z,86.70
2019-04-03T02:26:05.362Z,86.60
2019-04-03T02:28:00.210Z,87.30
2019-04-03T02:29:55.039Z,88.70
2019-04-03T02:31:51.768Z,87.60
2019-04-03T02:33:45.544Z,87.30
2019-04-03T02:35:41.036Z,87.40
2019-04-03T02:37:36.191Z,88.00
2019-04-03T02:39:31.101Z,88.20
2019-04-03T02:41:25.957Z,89.50
2019-04-03T02:43:21.125Z,89.70
2019-04-03T02:45:16.485Z,89.40
2019-04-03T02:47:11.341Z,89.70
2019-04-03T02:49:09.384Z,89.90
2019-04-03T02:51:01.758Z,90.10
2019-04-03T02:52:58.037Z,90.10
2019-04-03T02:54:52.557Z,90.10
2019-04-03T02:56:47.076Z,90.20
2019-04-03T02:58:41.373Z,90.10
2019-04-03T03:00:35.720Z,90.10
2019-04-03T03:02:30.448Z,90.00
2019-04-03T03:04:25.355Z,90.00
2019-04-03T03:06:20.013Z,90.00
2019-04-03T03:08:15.007Z,90.10
2019-04-03T03:10:09.673Z,90.10
2019-04-03T03:12:04.837Z,90.10
2019-04-03T03:14:00.255Z,90.00
2019-04-03T03:15:54.709Z,90.20
2019-04-03T03:17:54.608Z,90.10
2019-04-03T03:19:48.376Z,90.20
2019-04-03T03:21:44.700Z,90.10
2019-04-03T03:23:39.137Z,90.10
2019-04-03T03:25:34.636Z,90.30
2019-04-03T03:27:30.058Z,90.20
2019-04-03T03:29:26.979Z,90.20
2019-04-03T03:31:44.368Z,90.30
2019-04-03T03:33:32.639Z,90.50
2019-04-03T03:35:16.906Z,91.00
2019-04-03T03:37:12.725Z,90.60
2019-04-03T03:39:10.410Z,90.80
2019-04-03T03:41:03.797Z,90.50
2019-04-03T03:43:03.568Z,90.60
2019-04-03T03:44:58.188Z,90.60
2019-04-03T03:46:54.553Z,90.80
2019-04-03T03:48:48.616Z,91.10
2019-04-03T03:50:45.807Z,90.90
2019-04-03T03:52:39.993Z,90.90
2019-04-03T03:54:35.005Z,91.20
2019-04-03T03:56:32.309Z,91.00
2019-04-03T03:58:27.037Z,91.00
2019-04-03T04:00:23.630Z,91.00
2019-04-03T04:02:17.607Z,91.30
2019-04-03T04:04:14.169Z,91.30
2019-04-03T04:06:08.003Z,91.60
2019-04-03T04:08:02.605Z,91.90
2019-04-03T04:09:57.329Z,92.50
2019-04-03T04:11:52.859Z,92.40
2019-04-03T04:13:48.509Z,92.40
2019-04-03T04:15:44.993Z,92.70
2019-04-03T04:17:40.919Z,92.80
2019-04-03T04:19:36.683Z,93.00
2019-04-03T04:21:32.035Z,93.20
2019-04-03T04:23:27.280Z,93.10
2019-04-03T04:25:23.972Z,93.10
2019-04-03T04:27:18.926Z,93.70
2019-04-03T04:29:13.700Z,93.60
2019-04-03T04:31:08.765Z,93.90
2019-04-03T04:33:03.165Z,93.80
2019-04-03T04:34:59.133Z,93.70
2019-04-03T04:36:55.433Z,93.70
2019-04-03T04:38:50.767Z,93.80
2019-04-03T04:40:44.859Z,93.90
2019-04-03T04:42:39.980Z,94.30
2019-04-03T04:44:34.606Z,94.40
2019-04-03T04:46:28.625Z,94.40
2019-04-03T04:48:23.261Z,94.60
2019-04-03T04:50:25.427Z,95.00
2019-04-03T04:52:20.559Z,95.20
2019-04-03T04:54:15.550Z,95.00
2019-04-03T04:56:10.806Z,95.20
2019-04-03T04:58:05.667Z,95.30
2019-04-03T04:59:59.920Z,95.60
2019-04-03T05:01:53.982Z,95.60
2019-04-03T05:03:48.494Z,95.70
2019-04-03T05:05:43.548Z,95.70
2019-04-03T05:07:38.013Z,95.90
2019-04-03T05:09:34.654Z,96.20
2019-04-03T05:11:28.341Z,96.40
2019-04-03T05:13:23.309Z,96.50
2019-04-03T05:15:21.893Z,96.70
2019-04-03T05:17:13.858Z,96.60
2019-04-03T05:19:10.441Z,96.20
2019-04-03T05:21:04.196Z,96.60
2019-04-03T05:22:59.332Z,96.10
2019-04-03T05:24:54.283Z,96.20
2019-04-03T05:26:48.530Z,96.90
2019-04-03T05:28:54.342Z,97.10
2019-04-03T05:30:39.152Z,97.00
2019-04-03T05:32:33.118Z,97.30
2019-04-03T05:34:28.059Z,97.30
2019-04-03T05:36:22.927Z,97.20
2019-04-03T05:38:16.856Z,97.30
2019-04-03T05:40:11.287Z,97.30
2019-04-03T05:42:05.956Z,97.60
2019-04-03T05:44:02.436Z,97.70
2019-04-03T05:45:57.103Z,97.70
2019-04-03T05:47:51.843Z,97.40
2019-04-03T05:49:47.522Z,97.80
2019-04-03T05:51:49.239Z,97.30
2019-04-03T05:53:44.095Z,97.30
2019-04-03T05:55:40.602Z,97.30
2019-04-03T05:57:35.667Z,97.40
2019-04-03T05:59:32.692Z,97.60
2019-04-03T06:01:26.002Z,97.80
2019-04-03T06:03:21.904Z,98.50
2019-04-03T06:05:19.275Z,98.10
2019-04-03T06:07:13.891Z,98.20
2019-04-03T06:09:08.796Z,98.10
2019-04-03T06:11:07.547Z,98.50
2019-04-03T06:13:00.654Z,98.60
2019-04-03T06:14:55.623Z,98.30
2019-04-03T06:16:50.719Z,98.20
2019-04-03T06:18:47.515Z,98.00
2019-04-03T06:20:42.597Z,97.90
2019-04-03T06:22:37.348Z,97.30
2019-04-03T06:24:31.413Z,97.20
2019-04-03T06:26:26.363Z,97.10
2019-04-03T06:28:22.289Z,97.00
2019-04-03T06:30:17.255Z,96.90
2019-04-03T06:32:12.335Z,97.80
2019-04-03T06:34:07.662Z,97.50
2019-04-03T06:36:02.907Z,96.20
2019-04-03T06:37:58.138Z,96.50
2019-04-03T06:39:53.184Z,96.70
2019-04-03T06:41:48.165Z,95.80
2019-04-03T06:43:43.166Z,96.10
2019-04-03T06:45:37.404Z,96.80
2019-04-03T06:47:33.039Z,96.30
2019-04-03T06:49:28.258Z,96.10
2019-04-03T06:51:23.640Z,95.90
2019-04-03T06:53:18.553Z,95.60
2019-04-03T06:55:13.380Z,95.70
2019-04-03T06:57:09.053Z,95.50
2019-04-03T06:59:04.941Z,95.20
2019-04-03T07:01:04.568Z,95.10
2019-04-03T07:02:59.573Z,95.60
2019-04-03T07:04:54.205Z,94.90
2019-04-03T07:06:48.972Z,94.70
2019-04-03T07:08:47.100Z,95.10
2019-04-03T07:10:41.177Z,94.70
2019-04-03T07:12:36.447Z,94.50
2019-04-03T07:14:31.707Z,94.30
2019-04-03T07:16:26.784Z,94.10
2019-04-03T07:18:21.600Z,93.50
2019-04-03T07:20:19.746Z,93.60
2019-04-03T07:22:12.767Z,93.80
2019-04-03T07:24:07.687Z,94.00
2019-04-03T07:26:04.711Z,93.60
2019-04-03T07:27:59.688Z,93.40
2019-04-03T07:29:54.904Z,93.40
2019-04-03T07:31:49.559Z,92.70
2019-04-03T07:33:45.165Z,92.90
2019-04-03T07:35:42.756Z,93.00
2019-04-03T07:37:37.911Z,92.80
2019-04-03T07:39:32.688Z,92.80
2019-04-03T07:41:27.380Z,93.00
2019-04-03T07:43:22.526Z,92.90
2019-04-03T07:45:17.256Z,93.00
2019-04-03T07:47:12.989Z,92.90
2019-04-03T07:49:08.990Z,91.80
2019-04-03T07:51:05.580Z,91.80
2019-04-03T07:52:59.947Z,92.00
2019-04-03T07:54:56.631Z,90.80
2019-04-03T07:56:51.032Z,91.60
2019-04-03T07:58:45.769Z,91.10
2019-04-03T08:00:40.026Z,91.40
2019-04-03T08:02:35.211Z,91.20
2019-04-03T08:04:29.974Z,91.10
2019-04-03T08:06:24.508Z,91.10
2019-04-03T08:08:19.317Z,90.70
2019-04-03T08:10:14.634Z,90.50
2019-04-03T08:12:09.087Z,90.10
2019-04-03T08:14:04.566Z,90.50
2019-04-03T08:15:59.614Z,88.70
2019-04-03T08:17:56.773Z,89.20
2019-04-03T08:19:50.037Z,88.10
2019-04-03T08:21:44.879Z,88.20
2019-04-03T08:23:39.221Z,87.00
2019-04-03T08:25:34.166Z,88.20
2019-04-03T08:27:28.985Z,87.10
2019-04-03T08:29:23.276Z,86.80
2019-04-03T08:31:17.932Z,86.80
2019-04-03T08:33:17.408Z,85.60
2019-04-03T08:35:20.376Z,85.70
2019-04-03T08:37:09.634Z,84.80
2019-04-03T08:39:03.495Z,81.10
2019-04-03T08:40:59.362Z,83.10
2019-04-03T08:42:59.513Z,83.10
2019-04-03T08:44:52.895Z,80.80
2019-04-03T08:46:47.812Z,81.30
2019-04-03T08:48:42.570Z,80.80
2019-04-03T08:50:37.139Z,80.40
2019-04-03T08:52:31.414Z,79.90
2019-04-03T08:54:26.431Z,79.90
2019-04-03T08:56:20.459Z,78.70
2019-04-03T08:58:16.024Z,78.00
2019-04-03T09:00:17.327Z,78.90
2019-04-03T09:02:13.322Z,79.00
2019-04-03T09:04:08.005Z,78.50
2019-04-03T09:06:02.741Z,75.20
2019-04-03T09:07:57.448Z,76.40
2019-04-03T09:09:51.900Z,75.10
2019-04-03T09:11:46.905Z,73.90
2019-04-03T09:13:41.716Z,71.70
2019-04-03T09:15:36.164Z,73.00
2019-04-03T09:17:30.135Z,73.40
2019-04-03T09:19:25.074Z,71.00
2019-04-03T09:21:19.729Z,72.20
2019-04-03T09:23:14.761Z,70.90
2019-04-03T09:25:10.029Z,69.50
2019-04-03T09:27:54.302Z,69.70
2019-04-03T09:29:53.949Z,67.70
2019-04-03T09:31:50.659Z,66.80
2019-04-03T09:33:45.040Z,67.90
2019-04-03T09:35:42.669Z,66.20
2019-04-03T09:37:38.021Z,66.40
2019-04-03T09:39:32.231Z,66.50
2019-04-03T09:41:26.899Z,66.00
2019-04-03T09:43:23.129Z,65.20
2019-04-03T09:45:18.156Z,63.90
2019-04-03T09:47:12.848Z,64.10
2019-04-03T09:49:08.459Z,62.80
2019-04-03T09:51:03.826Z,62.90
2019-04-03T09:53:01.621Z,61.40
2019-04-03T09:54:54.317Z,62.50
2019-04-03T09:56:57.824Z,63.10
2019-04-03T09:58:45.449Z,63.20
2019-04-03T10:00:41.968Z,61.10
2019-04-03T10:02:36.356Z,59.80
2019-04-03T10:04:31.228Z,59.30
2019-04-03T10:06:25.481Z,59.80
2019-04-03T10:08:20.549Z,59.50
2019-04-03T10:10:16.555Z,59.30
2019-04-03T10:12:11.415Z,59.30
2019-04-03T10:14:07.264Z,59.10
2019-04-03T10:16:03.965Z,59.70
2019-04-03T10:17:57.026Z,59.50
2019-04-03T10:19:52.683Z,59.50
2019-04-03T10:21:47.636Z,59.20
2019-04-03T10:23:42.260Z,58.50
2019-04-03T10:25:38.043Z,58.90
2019-04-03T10:27:32.635Z,58.70
2019-04-03T10:29:27.754Z,58.50
2019-04-03T10:31:24.259Z,57.70
2019-04-03T10:33:19.121Z,57.10
2019-04-03T10:35:14.470Z,57.40
2019-04-03T10:37:09.210Z,57.30
2019-04-03T10:39:05.103Z,57.50
2019-04-03T10:40:59.819Z,57.20
2019-04-03T10:42:54.078Z,56.70
2019-04-03T10:44:49.017Z,56.00
2019-04-03T10:46:44.406Z,55.70
2019-04-03T10:48:39.512Z,56.20
2019-04-03T10:50:36.487Z,55.40
2019-04-03T10:52:30.569Z,55.40
2019-04-03T10:54:29.409Z,56.10
2019-04-03T10:56:24.579Z,56.10
2019-04-03T10:58:22.786Z,55.50
2019-04-03T11:00:18.050Z,53.30
2019-04-03T11:02:13.061Z,54.20
2019-04-03T11:04:08.116Z,53.70
2019-04-03T11:06:03.254Z,53.30
2019-04-03T11:07:58.161Z,52.80
2019-04-03T11:09:53.210Z,52.40
2019-04-03T11:11:47.919Z,51.70
2019-04-03T11:13:42.615Z,51.70
2019-04-03T11:15:36.804Z,49.90
2019-04-03T11:17:31.798Z,51.40
2019-04-03T11:19:26.492Z,51.50
2019-04-03T11:21:21.650Z,51.50
2019-04-03T11:23:16.466Z,51.80
2019-04-03T11:25:15.182Z,51.40
2019-04-03T11:27:10.260Z,51.70
2019-04-03T11:29:05.127Z,50.20
2019-04-03T11:31:01.459Z,49.60
2019-04-03T11:32:56.954Z,49.50
2019-04-03T11:34:53.936Z,49.10
2019-04-03T11:36:49.313Z,48.00
2019-04-03T11:38:43.694Z,46.60
2019-04-03T11:40:37.940Z,47.10
2019-04-03T11:42:32.734Z,46.20
2019-04-03T11:44:27.525Z,46.40
2019-04-03T11:46:22.302Z,45.40
2019-04-03T11:48:18.459Z,45.80
2019-04-03T11:50:18.050Z,45.70
2019-04-03T11:52:13.001Z,45.00
2019-04-03T11:54:08.800Z,44.70
2019-04-03T11:56:03.809Z,44.50
2019-04-03T11:57:59.259Z,44.80
2019-04-03T11:59:55.398Z,45.70
2019-04-03T12:01:49.660Z,45.70
2019-04-03T12:03:45.258Z,45.60
2019-04-03T12:05:40.462Z,45.70
2019-04-03T12:07:35.024Z,45.70
2019-04-03T12:09:31.673Z,45.10
2019-04-03T12:11:24.869Z,45.40
2019-04-03T12:13:20.968Z,44.30
2019-04-03T12:15:16.347Z,44.80
2019-04-03T12:17:11.448Z,44.60
2019-04-03T12:19:07.238Z,44.90
2019-04-03T12:21:01.992Z,45.20
2019-04-03T12:22:56.959Z,45.30
2019-04-03T12:24:51.768Z,45.20
2019-04-03T12:26:49.525Z,45.10
2019-04-03T12:28:44.753Z,44.20
2019-04-03T12:30:40.688Z,44.70
2019-04-03T12:32:39.285Z,44.50
2019-04-03T12:34:32.023Z,44.50
2019-04-03T12:36:27.813Z,44.10
2019-04-03T12:38:23.425Z,44.10
2019-04-03T12:40:18.666Z,43.40
2019-04-03T12:42:12.997Z,44.10
2019-04-03T12:44:07.948Z,42.10
2019-04-03T12:46:03.103Z,40.50
2019-04-03T12:48:02.157Z,39.70
2019-04-03T12:49:57.324Z,39.40
2019-04-03T12:51:51.994Z,38.90
2019-04-03T12:53:48.446Z,38.40
2019-04-03T12:55:43.072Z,38.20
2019-04-03T12:57:39.261Z,38.70
2019-04-03T12:59:34.099Z,38.60
2019-04-03T13:01:29.024Z,38.30
2019-04-03T13:03:25.760Z,37.40
2019-04-03T13:05:20.627Z,38.30
2019-04-03T13:07:15.148Z,37.40
2019-04-03T13:09:11.526Z,37.70
2019-04-03T13:11:06.165Z,37.50
2019-04-03T13:13:01.444Z,37.50
2019-04-03T13:14:56.626Z,37.40
2019-04-03T13:16:51.600Z,37.30
2019-04-03T13:18:45.734Z,36.70
2019-04-03T13:20:40.986Z,34.40
2019-04-03T13:22:35.738Z,35.70
2019-04-03T13:24:30.413Z,35.20
2019-04-03T13:26:25.887Z,35.20
2019-04-03T13:28:20.568Z,35.90
2019-04-03T13:30:15.535Z,34.90
2019-04-03T13:32:09.926Z,34.70
2019-04-03T13:34:04.994Z,35.00
2019-04-03T13:35:59.747Z,35.10
2019-04-03T13:37:55.577Z,35.50
2019-04-03T13:39:51.971Z,36.30
2019-04-03T13:41:47.600Z,36.70
2019-04-03T13:43:41.772Z,36.60
2019-04-03T13:45:36.998Z,36.80
2019-04-03T13:47:31.713Z,37.00
2019-04-03T13:49:29.889Z,37.00
2019-04-03T13:51:24.151Z,37.70
2019-04-03T13:53:20.979Z,37.80
2019-04-03T13:55:15.925Z,37.90
2019-04-03T13:57:13.399Z,37.80
2019-04-03T13:59:06.877Z,37.90
2019-04-03T14:01:03.054Z,38.00
2019-04-03T14:02:58.250Z,38.10
2019-04-03T14:04:56.093Z,38.30
2019-04-03T14:06:48.849Z,37.90
2019-04-03T14:08:45.260Z,38.00
2019-04-03T14:10:39.593Z,37.90
2019-04-03T14:12:36.643Z,38.70
2019-04-03T14:14:29.781Z,38.10
2019-04-03T14:16:24.414Z,38.20
2019-04-03T14:18:19.138Z,38.30
2019-04-03T14:20:14.176Z,38.30
2019-04-03T14:22:09.222Z,38.20
2019-04-03T14:24:07.066Z,38.10
2019-04-03T14:26:05.247Z,38.30
2019-04-03T14:27:56.063Z,38.30
2019-04-03T14:29:50.635Z,38.40
2019-04-03T14:31:47.964Z,38.30
2019-04-03T14:33:45.607Z,38.50
2019-04-03T14:35:48.896Z,38.70
2019-04-03T14:37:34.050Z,38.80
2019-04-03T14:39:28.980Z,38.90
2019-04-03T14:41:23.143Z,38.70
2019-04-03T14:43:17.577Z,39.00
2019-04-03T14:45:14.625Z,39.00
2019-04-03T14:47:09.991Z,39.20
2019-04-03T14:49:07.736Z,39.40
2019-04-03T14:51:01.991Z,39.50
2019-04-03T14:52:56.114Z,39.70
2019-04-03T14:54:50.931Z,39.80
2019-04-03T14:56:45.878Z,40.00
2019-04-03T14:58:40.328Z,40.40
2019-04-03T15:00:35.677Z,40.60
2019-04-03T15:02:30.618Z,40.70
2019-04-03T15:04:25.343Z,40.80
2019-04-03T15:06:20.012Z,41.40
2019-04-03T15:08:15.019Z,41.60
2019-04-03T15:10:11.664Z,41.50
2019-04-03T15:12:07.019Z,41.40
2019-04-03T15:14:02.015Z,41.50
2019-04-03T15:15:58.884Z,41.70
2019-04-03T15:17:52.234Z,42.00
2019-04-03T15:19:46.493Z,41.80
2019-04-03T15:21:40.962Z,42.10
2019-04-03T15:23:40.181Z,42.00
2019-04-03T15:25:32.590Z,42.00
2019-04-03T15:27:28.114Z,42.10
2019-04-03T15:29:23.676Z,42.50
2019-04-03T15:31:18.372Z,42.60
2019-04-03T15:33:13.820Z,42.70
2019-04-03T15:35:08.284Z,42.60
2019-04-03T15:37:03.066Z,42.60
2019-04-03T15:38:59.898Z,42.60
2019-04-03T15:40:57.540Z,42.90
2019-04-03T15:42:50.640Z,43.00
2019-04-03T15:44:45.487Z,43.20
2019-04-03T15:46:40.425Z,43.30
2019-04-03T15:48:35.595Z,43.30
2019-04-03T15:50:32.147Z,43.40
2019-04-03T15:52:26.413Z,43.30
2019-04-03T15:54:21.473Z,43.30
2019-04-03T15:56:16.798Z,43.40
2019-04-03T15:58:10.857Z,43.60
2019-04-03T16:00:07.902Z,43.60
2019-04-03T16:02:02.104Z,43.60
2019-04-03T16:03:58.939Z,43.60
2019-04-03T16:05:52.128Z,43.80
2019-04-03T16:07:47.324Z,43.80
2019-04-03T16:09:42.504Z,43.80
2019-04-03T16:11:38.085Z,43.80
2019-04-03T16:13:33.076Z,44.00
2019-04-03T16:15:27.764Z,44.10
2019-04-03T16:17:22.702Z,44.20
2019-04-03T16:19:16.767Z,44.20
2019-04-03T16:21:11.896Z,44.20
2019-04-03T16:23:07.135Z,44.40
2019-04-03T16:25:02.141Z,44.60
2019-04-03T16:26:57.669Z,44.60
2019-04-03T16:28:52.525Z,44.60
2019-04-03T16:30:52.199Z,44.70
2019-04-03T16:32:43.591Z,44.80
2019-04-03T16:34:40.829Z,44.90
2019-04-03T16:36:35.950Z,45.00
2019-04-03T16:38:30.169Z,45.30
2019-04-03T16:40:25.390Z,45.10
2019-04-03T16:42:19.504Z,45.20
2019-04-03T16:44:14.326Z,45.50
2019-04-03T16:46:10.963Z,45.60
2019-04-03T16:48:05.380Z,45.60
2019-04-03T16:50:00.354Z,45.50
2019-04-03T16:51:56.126Z,45.80
2019-04-03T16:53:51.805Z,46.10
2019-04-03T16:55:47.509Z,46.10
2019-04-03T16:57:42.118Z,46.40
2019-04-03T16:59:37.327Z,46.20
2019-04-03T17:01:32.024Z,46.50
2019-04-03T17:03:31.747Z,46.60
2019-04-03T17:05:23.695Z,46.70
2019-04-03T17:07:20.577Z,46.90
2019-04-03T17:09:14.899Z,47.00
2019-04-03T17:11:12.117Z,47.20
2019-04-03T17:13:05.835Z,47.00
2019-04-03T17:15:00.507Z,47.10
2019-04-03T17:16:55.243Z,47.30
2019-04-03T17:18:50.451Z,47.40
2019-04-03T17:20:45.695Z,47.60
2019-04-03T17:22:41.878Z,47.60
2019-04-03T17:24:43.514Z,47.70
2019-04-03T17:26:33.223Z,47.90
2019-04-03T17:28:28.982Z,47.90
2019-04-03T17:30:25.080Z,48.30
2019-04-03T17:32:20.933Z,52.80
2019-04-03T17:34:15.881Z,48.80
2019-04-03T17:36:10.931Z,48.90
2019-04-03T17:38:05.582Z,49.00
2019-04-03T17:40:00.773Z,49.20
2019-04-03T17:41:55.789Z,49.30
2019-04-03T17:43:55.717Z,49.50
2019-04-03T17:45:48.075Z,49.90
2019-04-03T17:47:45.704Z,49.70
2019-04-03T17:49:40.447Z,49.90
2019-04-03T17:51:34.949Z,49.90
2019-04-03T17:53:29.901Z,50.30
2019-04-03T17:55:26.216Z,50.30
2019-04-03T17:57:21.978Z,50.50
2019-04-03T17:59:19.041Z,50.20
2019-04-03T18:01:13.958Z,50.90
2019-04-03T18:03:09.107Z,50.70
2019-04-03T18:05:06.487Z,50.70
2019-04-03T18:07:01.770Z,51.10
2019-04-03T18:08:57.069Z,51.00
2019-04-03T18:10:52.443Z,51.20
2019-04-03T18:12:47.693Z,51.30
2019-04-03T18:14:45.186Z,51.50
2019-04-03T18:16:44.007Z,51.40
2019-04-03T18:18:39.475Z,51.60
2019-04-03T18:20:34.258Z,52.00
2019-04-03T18:22:30.024Z,52.10
2019-04-03T18:24:26.227Z,52.10
2019-04-03T18:26:21.174Z,52.20
2019-04-03T18:28:15.192Z,52.30
2019-04-03T18:30:12.711Z,52.50
2019-04-03T18:32:07.877Z,52.50
2019-04-03T18:34:02.315Z,52.70
2019-04-03T18:35:58.040Z,53.20
2019-04-03T18:37:53.288Z,52.80
2019-04-03T18:39:51.178Z,52.90
2019-04-03T18:41:47.430Z,53.00
2019-04-03T18:43:40.690Z,53.70
2019-04-03T18:45:36.333Z,53.30
2019-04-03T18:47:40.429Z,54.00
2019-04-03T18:49:26.955Z,53.90
2019-04-03T18:51:21.865Z,53.80
2019-04-03T18:53:17.046Z,54.00
2019-04-03T18:55:14.617Z,54.30
2019-04-03T18:57:08.101Z,54.20
2019-04-03T18:59:02.561Z,54.00
2019-04-03T19:00:56.495Z,54.10
2019-04-03T19:02:50.688Z,54.70
2019-04-03T19:04:45.593Z,54.60
2019-04-03T19:06:40.426Z,54.70
2019-04-03T19:08:35.538Z,54.50
2019-04-03T19:10:30.583Z,54.90
2019-04-03T19:12:35.015Z,54.70
2019-04-03T19:14:27.002Z,54.70
2019-04-03T19:16:28.699Z,55.10
2019-04-03T19:18:19.694Z,55.20
2019-04-03T19:20:14.912Z,55.60
2019-04-03T19:22:12.280Z,56.20
2019-04-03T19:24:07.327Z,55.40
2019-04-03T19:26:01.706Z,55.70
2019-04-03T19:27:56.275Z,55.60
2019-04-03T19:29:52.565Z,56.00
2019-04-03T19:31:47.655Z,55.70
2019-04-03T19:33:44.632Z,55.90
2019-04-03T19:35:37.779Z,55.50
2019-04-03T19:37:34.084Z,56.00
2019-04-03T19:39:28.856Z,56.30
2019-04-03T19:41:23.833Z,56.20
2019-04-03T19:43:18.890Z,56.40
2019-04-03T19:45:20.633Z,56.50
2019-04-03T19:47:14.104Z,56.70
2019-04-03T19:49:09.695Z,56.80
2019-04-03T19:51:04.288Z,56.70
2019-04-03T19:52:59.619Z,56.90
2019-04-03T19:54:54.551Z,57.70
2019-04-03T19:56:49.745Z,57.50
2019-04-03T19:58:44.389Z,57.40
2019-04-03T20:00:39.439Z,57.30
2019-04-03T20:02:34.459Z,57.50
2019-04-03T20:04:29.352Z,58.10
2019-04-03T20:06:24.982Z,58.80
2019-04-03T20:08:19.430Z,59.50
2019-04-03T20:10:14.766Z,60.10
2019-04-03T20:12:10.101Z,67.90
2019-04-03T20:14:05.668Z,67.90
2019-04-03T20:16:00.682Z,68.10
2019-04-03T20:17:55.472Z,70.00
2019-04-03T20:19:50.350Z,72.70
2019-04-03T20:21:45.204Z,75.60
2019-04-03T20:23:41.895Z,82.50
2019-04-03T20:25:35.790Z,84.40
2019-04-03T20:27:31.906Z,82.00
2019-04-03T20:29:27.801Z,84.20
2019-04-03T20:31:22.476Z,86.70
2019-04-03T20:33:16.551Z,90.80
2019-04-03T20:35:11.554Z,90.20
2019-04-03T20:37:05.661Z,91.80
2019-04-03T20:39:00.615Z,90.60
2019-04-03T20:40:57.212Z,92.60
2019-04-03T20:42:51.817Z,93.80
2019-04-03T20:44:48.644Z,92.90
2019-04-03T20:46:42.904Z,94.80
2019-04-03T20:48:37.244Z,95.90
2019-04-03T20:50:31.670Z,95.00
2019-04-03T20:52:26.326Z,98.30
2019-04-03T20:54:21.915Z,98.20
2019-04-03T20:56:16.992Z,97.80
2019-04-03T20:58:12.079Z,99.90
2019-04-03T21:00:11.357Z,99.90
2019-04-03T21:02:08.264Z,99.90
2019-04-03T21:04:02.016Z,99.90
2019-04-03T21:05:56.457Z,99.90
2019-04-03T21:07:50.479Z,99.90
2019-04-03T21:09:44.654Z,99.90
2019-04-03T21:11:39.509Z,99.90
2019-04-03T21:13:33.899Z,99.90
2019-04-03T21:15:28.448Z,99.90
2019-04-03T21:17:24.065Z,99.90
2019-04-03T21:19:21.264Z,99.90
2019-04-03T21:21:15.126Z,99.90
2019-04-03T21:23:09.974Z,99.90
2019-04-03T21:25:05.435Z,99.90
2019-04-03T21:27:00.398Z,99.90
2019-04-03T21:28:55.378Z,99.90
2019-04-03T21:30:49.629Z,99.90
2019-04-03T21:32:44.299Z,99.90
2019-04-03T21:34:39.211Z,99.90
2019-04-03T21:36:33.470Z,99.90
2019-04-03T21:38:29.683Z,99.90
2019-04-03T21:40:24.479Z,99.90
2019-04-03T21:42:18.602Z,99.90
2019-04-03T21:44:13.499Z,99.90
2019-04-03T21:46:08.975Z,99.90
2019-04-03T21:48:04.710Z,99.90
2019-04-03T21:50:03.514Z,99.90
2019-04-03T21:51:56.027Z,99.90
2019-04-03T21:53:51.752Z,99.90
2019-04-03T21:55:46.563Z,99.90
2019-04-03T21:57:41.590Z,99.90
2019-04-03T21:59:36.713Z,99.90
2019-04-03T22:01:31.075Z,99.90
2019-04-03T22:03:25.806Z,99.90
2019-04-03T22:05:19.975Z,99.90
2019-04-03T22:07:15.114Z,99.90
2019-04-03T22:09:12.926Z,99.90
2019-04-03T22:11:08.093Z,99.90
2019-04-03T22:13:03.367Z,99.90
2019-04-03T22:14:57.914Z,99.90
2019-04-03T22:16:53.199Z,99.90
2019-04-03T22:18:50.586Z,99.90
2019-04-03T22:20:44.964Z,99.90
2019-04-03T22:22:40.303Z,99.90
2019-04-03T22:24:37.537Z,99.90
2019-04-03T22:26:30.959Z,99.90
2019-04-03T22:28:25.662Z,99.90
2019-04-03T22:30:21.762Z,99.90
2019-04-03T22:32:16.311Z,99.90
2019-04-03T22:34:10.880Z,99.90
2019-04-03T22:36:05.536Z,99.90
2019-04-03T22:37:59.403Z,99.90
2019-04-03T22:39:54.220Z,99.90
2019-04-03T22:41:49.326Z,99.90
2019-04-03T22:43:46.188Z,99.90
2019-04-03T22:45:40.277Z,99.90
2019-04-03T22:47:34.932Z,99.90
2019-04-03T22:49:33.648Z,99.90
2019-04-03T22:51:26.624Z,99.90
2019-04-03T22:53:20.891Z,99.90
2019-04-03T22:55:15.926Z,99.90
2019-04-03T22:57:11.667Z,99.90
2019-04-03T22:59:06.623Z,99.90
2019-04-03T23:01:01.452Z,99.90
2019-04-03T23:02:55.995Z,99.90
2019-04-03T23:04:50.420Z,99.90
2019-04-03T23:06:49.399Z,99.90
2019-04-03T23:08:42.226Z,99.90
2019-04-03T23:10:37.184Z,99.90
2019-04-03T23:12:33.364Z,99.90
2019-04-03T23:14:28.412Z,99.90
2019-04-03T23:16:23.109Z,99.90
2019-04-03T23:18:18.108Z,99.90
2019-04-03T23:20:12.978Z,99.90
2019-04-03T23:22:08.225Z,99.90
2019-04-03T23:24:02.524Z,99.90
2019-04-03T23:25:57.171Z,99.90
2019-04-03T23:27:51.816Z,99.90
2019-04-03T23:29:46.830Z,99.90
2019-04-03T23:31:44.655Z,99.90
2019-04-03T23:33:37.332Z,99.90
2019-04-03T23:35:32.518Z,99.90
2019-04-03T23:37:27.372Z,99.90
2019-04-03T23:39:23.620Z,99.90
2019-04-03T23:41:17.623Z,99.90
2019-04-03T23:43:12.572Z,99.90
2019-04-03T23:45:07.815Z,99.90
2019-04-03T23:47:02.101Z,99.90
2019-04-03T23:48:57.283Z,99.90
2019-04-03T23:50:52.714Z,99.90
2019-04-03T23:52:48.464Z,99.90
2019-04-03T23:54:42.881Z,99.90
2019-04-03T23:56:38.903Z,99.90
2019-04-03T23:58:34.280Z,99.90
